Time;durP1;ratioP1;P1;durP2;ratioP2;P2;SDS_P1;SDS_P2;PMS_P1;PMS_P2;Temp;Humidity;BMP_temperature;BMP_pressure;BME280_temperature;BME280_humidity;BME280_pressure;Samples;Min_cycle;Max_cycle;Signal;HPM_P1;HPM_P2
2022/10/19 04:22:52;;;;;;;22.40;6.97;;;;;;;14.11;100.00;101102.78;5162900;27;20803;-69
2022/10/19 04:25:17;;;;;;;14.95;6.63;;;;;;;14.15;100.00;101100.56;5129734;27;20039;-69
2022/10/19 04:27:43;;;;;;;15.43;6.35;;;;;;;14.17;100.00;101095.91;5129707;27;20395;-70
2022/10/19 04:30:09;;;;;;;21.60;7.00;;;;;;;14.18;100.00;101092.19;5129984;27;20063;-70
2022/10/19 04:32:34;;;;;;;23.23;7.63;;;;;;;14.16;100.00;101089.72;5129794;27;20132;-70
2022/10/19 04:35:00;;;;;;;18.98;8.27;;;;;;;14.19;100.00;101091.19;5129713;27;20039;-70
2022/10/19 04:37:25;;;;;;;19.35;6.88;;;;;;;14.18;100.00;101082.31;5129647;27;20475;-70
2022/10/19 04:39:50;;;;;;;18.58;7.05;;;;;;;14.18;100.00;101082.31;5129531;27;20059;-70
2022/10/19 04:42:16;;;;;;;18.10;6.95;;;;;;;14.13;100.00;101084.69;5129349;27;20480;-70
2022/10/19 04:44:41;;;;;;;19.15;7.35;;;;;;;14.12;100.00;101091.06;5129994;27;20031;-70
2022/10/19 04:47:07;;;;;;;14.98;6.20;;;;;;;14.12;100.00;101083.84;5129721;27;20483;-70
2022/10/19 04:49:32;;;;;;;17.70;7.00;;;;;;;14.13;100.00;101087.38;5130000;27;20042;-70
2022/10/19 04:51:57;;;;;;;15.40;7.68;;;;;;;14.17;100.00;101093.22;5129144;27;20036;-70
2022/10/19 04:54:23;;;;;;;14.70;6.35;;;;;;;14.16;100.00;101084.34;5129338;27;20403;-70
2022/10/19 04:56:49;;;;;;;19.15;7.35;;;;;;;14.12;100.00;101088.38;5129135;27;20045;-70
2022/10/19 04:59:14;;;;;;;17.27;7.05;;;;;;;14.15;100.00;101092.53;5129222;27;20078;-70
2022/10/19 05:01:40;;;;;;;17.02;7.55;;;;;;;14.17;100.00;101094.06;5128905;27;20023;-70
2022/10/19 05:04:05;;;;;;;15.13;6.97;;;;;;;14.15;100.00;101093.41;5129149;27;20032;-70
2022/10/19 05:06:31;;;;;;;18.92;6.75;;;;;;;14.18;100.00;101087.69;5129084;27;20035;-70
2022/10/19 05:08:57;;;;;;;17.92;7.15;;;;;;;14.19;100.00;101093.88;5128749;27;20037;-70
2022/10/19 05:11:22;;;;;;;19.17;7.53;;;;;;;14.17;100.00;101093.22;5128755;27;20147;-70
2022/10/19 05:13:48;;;;;;;14.00;6.70;;;;;;;14.18;100.00;101086.84;5128897;27;20031;-70
2022/10/19 05:16:17;;;;;;;17.33;6.55;;;;;;;14.19;100.00;101086.66;5128898;27;20034;-70
2022/10/19 05:18:49;;;;;;;19.48;7.10;;;;;;;14.23;100.00;101074.59;5129047;27;20096;-70
2022/10/19 05:21:16;;;;;;;20.00;6.78;;;;;;;14.22;100.00;101082.81;5128364;27;20027;-70
2022/10/19 05:23:42;;;;;;;15.18;6.25;;;;;;;14.22;100.00;101080.13;5128824;27;20031;-70
2022/10/19 05:26:12;;;;;;;15.02;6.72;;;;;;;14.23;100.00;101081.78;5128550;27;20069;-70
2022/10/19 05:28:38;;;;;;;14.90;6.20;;;;;;;14.17;100.00;101072.63;5128699;27;20035;-70
2022/10/19 05:31:09;;;;;;;17.23;7.13;;;;;;;14.22;100.00;101075.59;5128115;27;20042;-71
2022/10/19 05:33:35;;;;;;;16.70;6.18;;;;;;;14.23;100.00;101079.94;5118657;27;20043;-70
2022/10/19 05:36:19;;;;;;;19.02;7.40;;;;;;;14.24;100.00;101083.47;5114828;28;20040;-70
2022/10/19 05:38:47;;;;;;;18.77;6.95;;;;;;;14.26;100.00;101076.06;5114774;28;20035;-70
2022/10/19 05:41:14;;;;;;;15.65;6.68;;;;;;;14.26;100.00;101076.91;5114423;28;20486;-70
2022/10/19 05:43:40;;;;;;;17.00;6.43;;;;;;;14.19;100.00;101065.22;5114646;28;20439;-70
2022/10/19 05:46:08;;;;;;;13.07;6.18;;;;;;;14.20;100.00;101080.28;5114611;28;20080;-70
2022/10/19 05:48:34;;;;;;;17.40;5.70;;;;;;;14.24;100.00;101072.75;5114667;28;20130;-70
2022/10/19 05:51:04;;;;;;;14.40;6.28;;;;;;;14.23;100.00;101063.88;5113944;28;20066;-70
2022/10/19 05:53:30;;;;;;;15.65;6.13;;;;;;;14.28;100.00;101071.34;5114516;28;20039;-70
2022/10/19 05:55:56;;;;;;;14.85;5.95;;;;;;;14.24;100.00;101070.91;5114439;28;20024;-70
2022/10/19 05:58:21;;;;;;;13.75;5.93;;;;;;;14.27;100.00;101077.72;5114410;28;20037;-70
2022/10/19 06:00:56;;;;;;;14.60;5.53;;;;;;;14.21;100.00;101065.88;5114164;28;20067;-70
2022/10/19 06:03:22;;;;;;;14.00;6.05;;;;;;;14.27;100.00;101078.56;5114161;28;20063;-69
2022/10/19 06:05:48;;;;;;;13.15;7.10;;;;;;;14.25;100.00;101071.72;5113948;28;20110;-70
2022/10/19 06:08:15;;;;;;;14.20;5.72;;;;;;;14.28;100.00;101082.94;5114282;28;20099;-70
2022/10/19 06:10:41;;;;;;;10.63;5.53;;;;;;;14.27;100.00;101086.59;5113768;28;20047;-70
2022/10/19 06:13:07;;;;;;;11.98;5.57;;;;;;;14.30;100.00;101097.00;5114199;28;20157;-70
2022/10/19 06:15:35;;;;;;;15.90;5.78;;;;;;;14.32;100.00;101084.22;5113975;28;20063;-71
2022/10/19 06:18:02;;;;;;;12.50;5.78;;;;;;;14.29;100.00;101087.28;5113919;28;20035;-71
2022/10/19 06:20:28;;;;;;;12.93;5.95;;;;;;;14.33;100.00;101085.91;5113480;28;20032;-71
2022/10/19 06:22:54;;;;;;;12.00;5.57;;;;;;;14.34;100.00;101086.72;5114127;28;20035;-70
2022/10/19 06:25:19;;;;;;;14.57;6.22;;;;;;;14.38;100.00;101082.69;5113805;28;20480;-69
2022/10/19 06:27:45;;;;;;;13.52;6.63;;;;;;;14.37;100.00;101086.38;5113857;28;20035;-69
2022/10/19 06:30:11;;;;;;;11.90;5.90;;;;;;;14.38;100.00;101082.69;5113635;28;20104;-70
2022/10/19 06:32:36;;;;;;;12.98;5.72;;;;;;;14.42;100.00;101083.19;5113536;28;20044;-70
2022/10/19 06:35:02;;;;;;;11.93;5.07;;;;;;;14.42;100.00;101081.34;5113628;28;20039;-69
2022/10/19 06:37:27;;;;;;;13.60;5.47;;;;;;;14.43;100.00;101083.00;5113550;27;20044;-69
2022/10/19 06:39:53;;;;;;;12.90;5.95;;;;;;;14.43;100.00;101080.31;5113472;28;20153;-68
2022/10/19 06:42:18;;;;;;;12.30;5.43;;;;;;;14.42;100.00;101077.81;5113361;28;20019;-70
2022/10/19 06:44:44;;;;;;;10.45;5.32;;;;;;;14.44;100.00;101083.84;5112461;28;20078;-69
2022/10/19 06:47:09;;;;;;;14.57;5.75;;;;;;;14.45;100.00;101077.47;5113237;28;20074;-70
2022/10/19 06:49:36;;;;;;;9.07;5.53;;;;;;;14.46;100.00;101081.78;5113345;28;20071;-71
2022/10/19 06:52:01;;;;;;;9.10;4.68;;;;;;;14.46;100.00;101097.88;5112884;28;20112;-71
2022/10/19 06:54:28;;;;;;;11.90;5.82;;;;;;;14.46;100.00;101101.44;5113290;28;20558;-71
2022/10/19 06:56:53;;;;;;;12.00;5.53;;;;;;;14.51;100.00;101095.53;5113127;28;20526;-71
2022/10/19 06:59:19;;;;;;;13.93;4.75;;;;;;;14.54;100.00;101092.50;5113179;28;20071;-71
2022/10/19 07:01:44;;;;;;;11.45;5.40;;;;;;;14.53;100.00;101099.69;5112809;28;20118;-70
2022/10/19 07:04:10;;;;;;;7.97;4.97;;;;;;;14.49;100.00;101079.63;5113031;28;20051;-71
2022/10/19 07:06:35;;;;;;;14.07;6.25;;;;;;;14.64;100.00;101101.13;5112875;28;20039;-70
2022/10/19 07:09:01;;;;;;;10.00;4.90;;;;;;;14.66;100.00;101091.88;5113080;28;20035;-70
2022/10/19 07:11:27;;;;;;;14.40;5.72;;;;;;;14.71;100.00;101086.00;5112592;28;20039;-71
2022/10/19 07:13:53;;;;;;;8.63;5.15;;;;;;;14.69;100.00;101090.72;5113024;27;20035;-70
2022/10/19 07:16:19;;;;;;;8.95;4.97;;;;;;;14.73;100.00;101100.06;5112767;28;20039;-70
2022/10/19 07:18:44;;;;;;;12.02;5.38;;;;;;;14.76;100.00;101096.19;5112728;28;20043;-71
2022/10/19 07:21:13;;;;;;;9.35;4.68;;;;;;;14.79;100.00;101090.47;5112211;28;20031;-70
2022/10/19 07:23:40;;;;;;;11.20;5.10;;;;;;;14.82;100.00;101090.13;5112786;28;20124;-70
2022/10/19 07:26:08;;;;;;;11.05;5.47;;;;;;;14.82;100.00;101090.13;5113034;28;20040;-71
2022/10/19 07:28:34;;;;;;;10.43;5.35;;;;;;;14.85;100.00;101090.56;5112759;28;20036;-70
2022/10/19 07:31:05;;;;;;;11.93;5.55;;;;;;;14.86;100.00;101083.34;5112258;28;20401;-70
2022/10/19 07:33:30;;;;;;;11.80;4.82;;;;;;;14.88;100.00;101084.03;5112641;28;20054;-71
2022/10/19 07:36:01;;;;;;;11.23;5.35;;;;;;;14.92;100.00;101086.16;5112561;28;20027;-71
2022/10/19 07:38:26;;;;;;;9.35;5.05;;;;;;;15.01;100.00;101088.78;5112756;28;20040;-71
2022/10/19 07:41:03;;;;;;;11.15;5.28;;;;;;;15.08;100.00;101090.56;5112213;28;20054;-71
2022/10/19 07:43:28;;;;;;;13.93;5.00;;;;;;;15.15;100.00;101080.75;5112430;28;20036;-70
2022/10/19 07:46:02;;;;;;;9.32;4.97;;;;;;;15.24;100.00;101086.03;5110815;28;20074;-70
2022/10/19 07:48:28;;;;;;;8.88;4.90;;;;;;;15.28;100.00;101082.81;5112409;28;20480;-71
2022/10/19 07:50:54;;;;;;;8.40;4.65;;;;;;;15.29;100.00;101089.84;5111939;28;20040;-71
2022/10/19 07:53:20;;;;;;;10.30;4.93;;;;;;;15.28;100.00;101088.16;5112188;28;20100;-71
2022/10/19 07:55:45;;;;;;;11.32;4.95;;;;;;;15.17;100.00;101093.97;5110834;28;20073;-70
2022/10/19 07:58:11;;;;;;;9.95;5.32;;;;;;;15.25;100.00;101087.69;5111980;28;20035;-71
2022/10/19 08:00:36;;;;;;;8.65;4.63;;;;;;;15.29;100.00;101097.06;5111718;28;20039;-71
2022/10/19 08:03:02;;;;;;;9.85;5.45;;;;;;;15.31;100.00;101085.09;5111997;28;20040;-71
2022/10/19 08:05:27;;;;;;;7.47;4.38;;;;;;;15.33;100.00;101093.81;5111883;28;20058;-71
2022/10/19 08:07:53;;;;;;;9.18;4.95;;;;;;;15.30;100.00;101094.19;5111856;28;20043;-71
2022/10/19 08:10:18;;;;;;;9.43;4.80;;;;;;;15.38;100.00;101090.56;5111657;28;20161;-71
2022/10/19 08:12:44;;;;;;;9.43;4.35;;;;;;;15.45;100.00;101092.34;5112052;28;20040;-72
2022/10/19 08:15:12;;;;;;;7.45;3.83;;;;;;;15.53;100.00;101096.81;5111885;28;20536;-71
2022/10/19 08:17:38;;;;;;;7.40;4.50;;;;;;;15.61;100.00;101094.00;5111971;28;20088;-71
2022/10/19 08:20:05;;;;;;;9.52;4.18;;;;;;;15.53;100.00;101094.13;5111727;28;20134;-71
2022/10/19 08:22:30;;;;;;;11.43;4.47;;;;;;;15.61;100.00;101095.88;5111671;28;20039;-70
2022/10/19 08:24:55;;;;;;;7.65;4.95;;;;;;;15.59;100.00;101088.00;5112017;28;20040;-71
2022/10/19 08:27:21;;;;;;;8.38;4.80;;;;;;;15.65;100.00;101089.16;5111800;28;20401;-70
2022/10/19 08:29:46;;;;;;;9.13;5.03;;;;;;;15.77;100.00;101078.75;5111791;28;20050;-70
2022/10/19 08:32:11;;;;;;;8.88;4.38;;;;;;;15.88;100.00;101083.66;5111439;28;20048;-71
2022/10/19 08:34:37;;;;;;;9.98;5.30;;;;;;;16.04;100.00;101085.28;5111721;28;20036;-71
2022/10/19 08:37:02;;;;;;;8.85;4.68;;;;;;;16.03;100.00;101079.06;5111721;28;20043;-71
2022/10/19 08:39:28;;;;;;;9.95;5.43;;;;;;;15.99;100.00;101080.50;5111822;28;20035;-67
2022/10/19 08:41:56;;;;;;;6.53;3.97;;;;;;;16.01;100.00;101076.56;5111323;28;20064;-69
2022/10/19 08:44:30;;;;;;;9.10;4.65;;;;;;;16.10;100.00;101085.34;5111714;28;20044;-68
2022/10/19 08:47:20;;;;;;;7.80;4.80;;;;;;;16.18;100.00;101085.25;5111714;28;20402;-70
2022/10/19 08:49:46;;;;;;;7.68;4.50;;;;;;;16.25;100.00;101077.28;5111505;28;20142;-70
2022/10/19 08:52:23;;;;;;;8.73;4.95;;;;;;;16.34;100.00;101080.66;5111207;28;20024;-70
2022/10/19 08:54:54;;;;;;;8.80;4.35;;;;;;;16.41;100.00;101074.31;5111713;28;20104;-69
2022/10/19 08:57:46;;;;;;;6.25;4.15;;;;;;;16.35;100.00;101067.03;5111601;28;20055;-69
2022/10/19 09:00:51;;;;;;;9.02;4.82;;;;;;;16.43;100.00;101064.22;5111149;28;20495;-69
2022/10/19 09:03:26;;;;;;;5.25;3.17;;;;;;;16.53;100.00;101063.91;5099926;28;20075;-69
2022/10/19 09:06:02;;;;;;;5.78;3.63;;;;;;;16.54;100.00;101065.56;5111467;28;20032;-69
2022/10/19 09:08:27;;;;;;;7.25;4.03;;;;;;;16.70;100.00;101061.81;5113250;28;20024;-69
2022/10/19 09:10:53;;;;;;;8.45;4.63;;;;;;;16.77;100.00;101060.00;5114875;28;20040;-69
2022/10/19 09:13:44;;;;;;;6.72;4.03;;;;;;;16.91;100.00;101063.66;5115192;28;20046;-69
2022/10/19 09:16:13;;;;;;;6.55;3.88;;;;;;;16.92;100.00;101065.31;5115241;28;20031;-69
2022/10/19 09:18:39;;;;;;;10.25;3.97;;;;;;;16.84;100.00;101068.16;5115146;28;20123;-69
2022/10/19 09:21:31;;;;;;;5.78;3.95;;;;;;;16.84;100.00;101066.28;5114715;27;20066;-69
2022/10/19 09:23:59;;;;;;;7.18;4.05;;;;;;;16.64;100.00;101062.56;5115222;28;20088;-69
2022/10/19 09:26:29;;;;;;;7.47;4.18;;;;;;;16.80;100.00;101065.00;5115037;28;20032;-67
2022/10/19 09:29:07;;;;;;;7.13;4.40;;;;;;;16.86;100.00;101064.22;5115538;28;20114;-69
2022/10/19 09:31:39;;;;;;;5.05;3.63;;;;;;;16.89;100.00;101061.16;5114817;28;20092;-69
2022/10/19 09:34:21;;;;;;;6.32;4.03;;;;;;;16.86;100.00;101064.22;5114906;28;20039;-67
2022/10/19 09:36:55;;;;;;;7.80;4.38;;;;;;;16.88;100.00;101069.41;5115008;28;20059;-69
2022/10/19 09:39:22;;;;;;;6.70;3.90;;;;;;;16.87;100.00;101065.06;5114902;28;20063;-67
2022/10/19 09:41:55;;;;;;;6.95;4.57;;;;;;;16.97;100.00;101061.00;5114439;28;20450;-69
2022/10/19 09:44:22;;;;;;;10.02;4.22;;;;;;;17.11;100.00;101045.78;5113346;28;20401;-69
2022/10/19 09:46:53;;;;;;;5.63;3.85;;;;;;;16.98;100.00;101059.97;5114655;28;20130;-69
2022/10/19 09:49:37;;;;;;;5.85;3.78;;;;;;;16.96;100.00;101059.34;5114638;28;20039;-69
2022/10/19 09:52:03;;;;;;;5.68;3.97;;;;;;;17.17;100.00;101052.25;5114342;28;20043;-69
2022/10/19 09:54:36;;;;;;;9.43;3.70;;;;;;;17.34;100.00;101049.06;5114607;28;20123;-69
2022/10/19 09:57:03;;;;;;;5.63;3.47;;;;;;;17.25;100.00;101039.44;5114476;28;20045;-69
2022/10/19 09:59:31;;;;;;;;;;;;;;;17.36;100.00;101040.75;5114866;28;20044;-69
2022/10/19 10:02:17;;;;;;;6.40;3.75;;;;;;;17.29;100.00;101048.81;5114182;28;19907;-69
2022/10/19 10:04:54;;;;;;;5.35;3.47;;;;;;;17.11;100.00;101047.66;5114458;28;20043;-69
2022/10/19 10:07:23;;;;;;;5.93;3.45;;;;;;;17.19;100.00;101042.94;5114250;28;20119;-69
2022/10/19 10:09:51;;;;;;;4.63;3.00;;;;;;;17.13;100.00;101040.19;5114252;28;20038;-69
2022/10/19 10:12:17;;;;;;;7.93;3.80;;;;;;;16.84;100.00;101052.00;5112765;28;20044;-69
2022/10/19 10:14:43;;;;;;;8.35;3.65;;;;;;;16.65;100.00;101040.84;5114087;28;20036;-68
2022/10/19 10:17:21;;;;;;;5.82;3.92;;;;;;;16.71;100.00;101042.78;5114040;27;20039;-69
2022/10/19 10:19:57;;;;;;;6.75;3.90;;;;;;;16.67;100.00;101040.63;5106691;28;20039;-69
2022/10/19 10:22:29;;;;;;;6.68;3.67;;;;;;;16.78;100.00;101029.38;5111211;28;20024;-69
2022/10/19 10:24:55;;;;;;;5.40;3.53;;;;;;;16.87;100.00;101028.22;5113746;28;20050;-69
2022/10/19 10:27:31;;;;;;;6.72;3.80;;;;;;;17.13;100.00;101032.94;5113600;28;20063;-69
2022/10/19 10:29:57;;;;;;;5.88;3.78;;;;;;;17.40;100.00;101023.16;5113119;28;20031;-69
2022/10/19 10:32:24;;;;;;;4.82;3.47;;;;;;;17.78;98.49;101036.22;5113108;28;20028;-69
2022/10/19 10:35:00;;;;;;;5.82;3.72;;;;;;;18.15;96.01;101024.94;5113567;28;20035;-69
2022/10/19 10:37:34;;;;;;;4.97;3.42;;;;;;;18.41;94.12;101026.84;5113591;28;20567;-69
2022/10/19 10:39:59;;;;;;;5.53;3.10;;;;;;;19.03;90.77;101019.38;5112928;28;20508;-69
2022/10/19 10:42:33;;;;;;;6.00;2.85;;;;;;;19.68;87.59;101020.28;5113051;28;20131;-69
2022/10/19 10:44:59;;;;;;;4.43;3.15;;;;;;;19.98;84.42;101015.16;5113286;28;20035;-69
2022/10/19 10:47:27;;;;;;;5.15;3.42;;;;;;;20.19;82.84;101018.56;5113354;27;20035;-69
2022/10/19 10:49:55;;;;;;;;;;;;;;;21.06;78.69;101006.84;5113667;28;20168;-69
2022/10/19 10:52:21;;;;;;;3.53;2.63;;;;;;;21.96;74.55;101008.91;5112486;28;19916;-69
2022/10/19 10:54:58;;;;;;;3.65;2.35;;;;;;;22.44;72.30;101005.31;5113233;28;20031;-69
2022/10/19 10:57:29;;;;;;;2.90;2.15;;;;;;;23.01;68.37;100997.47;5113056;28;20043;-70
2022/10/19 11:00:14;;;;;;;3.83;2.45;;;;;;;23.76;63.30;100997.47;5112837;28;20047;-69
2022/10/19 11:03:03;;;;;;;3.40;2.35;;;;;;;23.38;63.04;100998.00;5113191;28;20088;-69
2022/10/19 11:05:41;;;;;;;4.25;2.92;;;;;;;23.95;60.89;100994.56;5113068;28;20499;-69
2022/10/19 11:08:17;;;;;;;4.57;2.60;;;;;;;24.33;60.42;101002.03;5112882;28;20105;-69
2022/10/19 11:10:52;;;;;;;4.03;2.53;;;;;;;24.86;56.93;100985.22;5112243;28;20044;-69
2022/10/19 11:13:40;;;;;;;4.00;2.85;;;;;;;23.85;60.59;100991.63;5112568;28;20031;-70
2022/10/19 11:16:16;;;;;;;4.03;2.47;;;;;;;23.36;62.48;100991.19;5100269;22;20496;-62
2022/10/19 11:18:53;;;;;;;3.58;2.47;;;;;;;23.17;63.32;100982.34;5072481;28;20119;-64
2022/10/19 11:21:30;;;;;;;;;;;;;;;22.98;63.33;100987.09;5072787;28;20037;-64
2022/10/19 11:24:22;;;;;;;3.33;2.50;;;;;;;22.15;66.12;100978.00;5072577;28;19941;-64
2022/10/19 11:26:55;;;;;;;2.72;1.95;;;;;;;21.62;69.29;100975.16;5052234;28;20047;-61
2022/10/19 11:29:30;;;;;;;2.75;2.33;;;;;;;21.28;71.73;100977.47;5052410;28;20150;-63
2022/10/19 11:31:56;;;;;;;3.33;2.40;;;;;;;20.65;72.41;100964.13;5051343;28;20105;-61
2022/10/19 11:35:03;;;;;;;3.20;2.28;;;;;;;20.81;73.48;100968.16;5052129;28;20040;-63
2022/10/19 11:37:46;;;;;;;3.58;2.58;;;;;;;20.26;74.42;100967.94;5041194;28;20044;-62
2022/10/19 11:40:28;;;;;;;4.20;2.90;;;;;;;19.91;76.47;100967.56;5051704;28;20033;-63
2022/10/19 11:43:08;;;;;;;4.18;2.50;;;;;;;19.51;79.62;100959.63;5050415;28;20916;-65
2022/10/19 11:45:58;;;;;;;3.38;2.50;;;;;;;19.48;80.09;100949.25;5051697;28;20041;-65
2022/10/19 11:48:47;;;;;;;3.95;2.33;;;;;;;19.44;81.94;100964.25;5052042;28;20047;-67
2022/10/19 11:51:25;;;;;;;5.60;2.50;;;;;;;19.04;82.64;100948.19;5051759;28;20043;-67
2022/10/19 11:53:59;;;;;;;;;;;;;;;18.97;82.78;100953.59;5052302;28;20052;-67
2022/10/19 11:56:34;;;;;;;5.25;3.65;;;;;;;18.85;83.21;100946.34;5051708;28;19923;-65
2022/10/19 11:59:32;;;;;;;3.55;2.15;;;;;;;18.69;83.58;100942.22;5051828;28;20032;-65
2022/10/19 12:02:00;;;;;;;2.83;1.90;;;;;;;18.66;83.92;100943.47;5035192;28;20505;-66
2022/10/19 12:04:37;;;;;;;2.53;2.00;;;;;;;18.69;83.22;100947.59;5051236;28;20505;-65
2022/10/19 12:07:31;;;;;;;3.88;2.47;;;;;;;18.64;85.00;100941.97;5051793;28;20033;-66
2022/10/19 12:10:20;;;;;;;2.40;1.90;;;;;;;18.63;84.93;100943.84;5051506;28;20178;-65
2022/10/19 12:12:53;;;;;;;2.67;1.50;;;;;;;18.47;84.79;100938.88;5051484;28;20390;-66
2022/10/19 12:15:25;;;;;;;2.60;1.88;;;;;;;18.64;84.53;100939.28;5051340;28;20052;-67
2022/10/19 12:17:52;;;;;;;2.38;1.90;;;;;;;18.61;84.19;100934.31;5051790;28;20029;-66
2022/10/19 12:20:29;;;;;;;2.72;1.90;;;;;;;18.51;83.50;100929.31;5051624;28;20409;-66
2022/10/19 12:22:57;;;;;;;3.28;2.03;;;;;;;18.41;85.72;100934.31;5051626;28;20074;-66
2022/10/19 12:25:25;;;;;;;2.67;1.98;;;;;;;18.47;84.72;100925.41;5051233;28;20033;-65
2022/10/19 12:27:51;;;;;;;1.95;1.48;;;;;;;18.41;84.10;100920.84;5051655;28;20048;-66
2022/10/19 12:30:21;;;;;;;3.83;1.67;;;;;;;18.46;84.24;100925.63;5051173;28;20181;-67
2022/10/19 12:33:29;;;;;;;2.30;1.70;;;;;;;18.58;83.46;100916.69;5051459;28;20556;-68
2022/10/19 12:35:59;;;;;;;2.50;1.75;;;;;;;18.63;83.42;100911.47;5051393;28;20037;-67
2022/10/19 12:38:56;;;;;;;5.47;1.75;;;;;;;18.36;85.03;100904.44;5051767;28;20133;-66
2022/10/19 12:41:30;;;;;;;1.65;1.38;;;;;;;18.49;84.53;100903.59;5051132;28;20055;-66
2022/10/19 12:44:03;;;;;;;2.05;1.50;;;;;;;18.65;82.66;100893.22;5053920;28;20116;-65
2022/10/19 12:46:44;;;;;;;2.33;1.52;;;;;;;18.63;82.91;100889.88;5055510;28;20033;-65
2022/10/19 12:49:43;;;;;;;1.52;1.10;;;;;;;18.72;83.20;100884.31;5055712;28;20064;-65
2022/10/19 12:52:10;;;;;;;7.95;1.27;;;;;;;18.72;82.05;100892.41;5011636;28;20080;-66
2022/10/19 12:54:38;;;;;;;2.28;1.30;;;;;;;18.79;82.03;100883.25;5054967;28;20055;-66
2022/10/19 12:57:20;;;;;;;1.70;1.23;;;;;;;18.75;83.58;100878.47;5055362;28;20074;-67
2022/10/19 12:59:58;;;;;;;2.08;1.40;;;;;;;18.71;82.38;100872.66;5055174;28;20477;-66
2022/10/19 13:02:29;;;;;;;1.70;1.30;;;;;;;18.68;82.20;100873.94;5054943;28;20090;-66
2022/10/19 13:04:54;;;;;;;2.05;1.50;;;;;;;18.53;81.63;100867.09;5054850;28;20041;-67
2022/10/19 13:07:20;;;;;;;1.70;1.30;;;;;;;18.56;81.21;100861.25;5055011;28;20488;-66
2022/10/19 13:09:47;;;;;;;1.73;1.30;;;;;;;18.54;82.65;100857.94;5055045;28;20049;-67
2022/10/19 13:12:12;;;;;;;1.58;1.10;;;;;;;18.56;82.68;100862.09;5036782;28;20036;-63
2022/10/19 13:15:00;;;;;;;1.52;1.20;;;;;;;18.53;82.96;100856.28;5054474;28;20051;-64
2022/10/19 13:17:45;;;;;;;2.03;1.23;;;;;;;18.54;82.98;100850.69;5054807;28;20119;-62
2022/10/19 13:20:13;;;;;;;2.63;1.38;;;;;;;18.59;82.13;100845.50;5054658;28;20041;-62
2022/10/19 13:22:57;;;;;;;2.42;1.70;;;;;;;18.51;81.81;100843.00;5036910;28;20112;-63
2022/10/19 13:25:27;;;;;;;1.25;1.10;;;;;;;18.40;82.23;100843.66;5054485;28;20029;-63
2022/10/19 13:27:53;;;;;;;1.40;1.20;;;;;;;18.43;82.57;100837.84;5054463;28;20123;-63
2022/10/19 13:30:34;;;;;;;1.23;0.90;;;;;;;18.34;82.24;100834.53;5054123;28;20029;-62
2022/10/19 13:33:19;;;;;;;3.25;1.23;;;;;;;18.33;81.47;100832.88;5054484;28;20033;-62
2022/10/19 13:35:45;;;;;;;1.13;1.02;;;;;;;18.28;82.48;100829.16;5054143;28;20037;-61
2022/10/19 13:38:13;;;;;;;1.90;1.20;;;;;;;18.32;82.28;100824.97;5054176;28;20027;-61
2022/10/19 13:40:48;;;;;;;1.00;0.90;;;;;;;18.32;82.07;100822.28;5053856;28;20043;-63
2022/10/19 13:43:22;;;;;;;1.88;1.20;;;;;;;18.18;83.06;100814.22;5054342;28;20120;-63
2022/10/19 13:46:09;;;;;;;1.58;1.20;;;;;;;18.23;82.91;100818.16;5054302;28;20233;-63
2022/10/19 13:49:11;;;;;;;1.55;1.20;;;;;;;18.27;82.28;100809.47;5054242;28;20036;-62
2022/10/19 13:52:11;;;;;;;1.13;1.00;;;;;;;18.28;82.85;100810.28;5034112;28;20080;-62
2022/10/19 13:55:04;;;;;;;1.05;0.88;;;;;;;18.34;82.24;100802.19;5033631;28;20390;-63
2022/10/19 13:58:03;;;;;;;2.75;1.20;;;;;;;18.38;81.57;100802.56;5034266;28;20045;-63
2022/10/19 14:00:57;;;;;;;3.03;1.15;;;;;;;18.47;80.87;100795.94;5033817;28;20083;-63
2022/10/19 14:03:59;;;;;;;1.25;1.15;;;;;;;18.47;81.94;100793.22;5033896;28;20084;-63
2022/10/19 14:06:27;;;;;;;1.35;1.13;;;;;;;18.47;81.83;100787.84;5033978;28;20033;-63
2022/10/19 14:09:11;;;;;;;1.60;1.20;;;;;;;18.49;82.99;100791.13;5033878;28;20038;-63
2022/10/19 14:11:39;;;;;;;1.20;1.10;;;;;;;18.65;81.62;100779.06;5033419;28;20379;-63
2022/10/19 14:14:11;;;;;;;1.20;1.10;;;;;;;18.77;81.29;100788.16;5033890;28;20049;-63
2022/10/19 14:16:52;;;;;;;1.50;1.10;;;;;;;18.82;80.12;100787.53;5033724;28;20473;-63
2022/10/19 14:19:30;;;;;;;1.30;1.20;;;;;;;18.89;79.16;100785.63;5033742;28;20046;-62
2022/10/19 14:22:16;;;;;;;2.72;1.30;;;;;;;18.86;78.99;100783.38;5033347;28;20048;-63
2022/10/19 14:24:41;;;;;;;1.38;1.10;;;;;;;18.92;79.43;100775.25;5033588;28;20430;-60
2022/10/19 14:27:23;;;;;;;1.23;1.10;;;;;;;18.70;80.38;100774.69;5033784;28;20029;-62
2022/10/19 14:29:52;;;;;;;1.10;1.00;;;;;;;18.89;79.88;100780.22;5033479;28;20065;-57
2022/10/19 14:32:22;;;;;;;1.23;1.02;;;;;;;18.91;80.01;100783.56;5033178;28;20033;-62
2022/10/19 14:34:48;;;;;;;1.10;0.98;;;;;;;18.89;80.01;100762.16;5033659;28;20053;-62
2022/10/19 14:37:25;;;;;;;2.20;1.08;;;;;;;18.95;79.70;100766.69;5033518;28;20033;-62
2022/10/19 14:40:02;;;;;;;1.73;1.30;;;;;;;18.96;80.11;100768.34;5033384;28;20045;-62
2022/10/19 14:42:40;;;;;;;1.45;1.20;;;;;;;18.82;79.20;100752.44;5033164;28;20033;-62
2022/10/19 14:45:12;;;;;;;1.48;1.20;;;;;;;18.86;79.32;100754.50;5033266;28;20038;-62
2022/10/19 14:47:55;;;;;;;2.40;1.20;;;;;;;18.89;79.52;100755.94;5033517;28;20175;-63
2022/10/19 14:50:25;;;;;;;3.35;1.73;;;;;;;18.76;79.70;100764.09;5032875;28;20037;-62
2022/10/19 14:52:59;;;;;;;2.65;1.50;;;;;;;18.77;79.97;100765.75;5032995;28;20044;-60
2022/10/19 14:55:33;;;;;;;3.15;1.33;;;;;;;18.82;80.04;100769.47;5034537;28;20109;-62
2022/10/19 14:57:58;;;;;;;2.40;1.50;;;;;;;18.85;80.04;100763.66;5033601;28;20069;-63
2022/10/19 15:00:25;;;;;;;1.75;1.50;;;;;;;18.91;80.17;100760.09;5015067;28;20045;-63
2022/10/19 15:02:59;;;;;;;1.80;1.30;;;;;;;18.95;79.87;100752.38;5033157;28;20035;-63
2022/10/19 15:05:28;;;;;;;1.52;1.00;;;;;;;18.89;80.20;100751.38;5032095;28;20079;-60
2022/10/19 15:07:54;;;;;;;2.10;1.50;;;;;;;18.98;80.27;100760.06;5032886;28;20052;-62
2022/10/19 15:10:27;;;;;;;1.85;1.25;;;;;;;18.96;80.68;100748.63;5032422;28;20470;-62
2022/10/19 15:12:59;;;;;;;1.55;1.30;;;;;;;19.00;80.54;100751.75;5032694;28;20109;-62
2022/10/19 15:15:28;;;;;;;2.00;1.33;;;;;;;18.99;80.76;100748.22;5032485;28;20033;-62
2022/10/19 15:17:59;;;;;;;1.75;1.30;;;;;;;18.97;81.19;100743.03;5032597;28;20047;-62
2022/10/19 15:20:37;;;;;;;2.70;2.20;;;;;;;18.97;80.28;100728.69;5032205;28;20044;-63
2022/10/19 15:23:31;;;;;;;2.30;1.48;;;;;;;18.84;81.76;100726.06;5031210;28;20369;-62
2022/10/19 15:26:01;;;;;;;1.92;1.30;;;;;;;18.87;82.01;100715.66;5032441;28;20155;-63
2022/10/19 15:28:36;;;;;;;3.25;1.38;;;;;;;18.82;81.13;100728.97;5032397;28;20112;-63
2022/10/19 15:31:16;;;;;;;1.80;1.35;;;;;;;18.83;80.63;100725.22;5031998;28;20061;-62
2022/10/19 15:33:49;;;;;;;1.75;1.20;;;;;;;18.80;80.82;100732.94;5032363;28;20135;-63
2022/10/19 15:36:16;;;;;;;1.75;1.40;;;;;;;18.76;80.23;100723.63;5032224;28;20091;-63
2022/10/19 15:38:47;;;;;;;2.53;1.37;;;;;;;18.65;80.42;100715.13;5032154;28;20517;-62
2022/10/19 15:41:25;;;;;;;2.20;1.65;;;;;;;18.62;81.19;100729.03;5031985;28;20033;-62
2022/10/19 15:43:53;;;;;;;1.88;1.45;;;;;;;18.59;81.42;100713.31;5032207;28;20494;-62
2022/10/19 15:46:24;;;;;;;;;;;;;;;18.52;81.85;100717.91;5032463;28;20542;-63
2022/10/19 15:48:55;;;;;;;2.35;1.70;;;;;;;18.49;83.46;100720.19;5032133;28;20294;-60
2022/10/19 15:51:26;;;;;;;1.52;1.30;;;;;;;18.29;87.54;100721.09;5031835;28;20048;-60
2022/10/19 15:53:53;;;;;;;1.65;1.35;;;;;;;18.24;88.92;100714.66;5014291;28;20091;-62
2022/10/19 15:56:20;;;;;;;2.17;1.73;;;;;;;18.15;90.33;100708.69;5038369;28;20119;-63
2022/10/19 15:58:49;;;;;;;5.00;2.22;;;;;;;17.99;91.83;100714.50;5051752;28;20056;-63
2022/10/19 16:01:19;;;;;;;2.38;2.00;;;;;;;17.94;91.86;100707.06;5050027;28;20043;-63
2022/10/19 16:03:45;;;;;;;2.25;1.60;;;;;;;17.90;92.88;100709.34;5051578;28;20029;-63